• Join FlightAware (Why Join?)
  • Login
  • US Flag 
04:31AM EDT


 

Airport Tracker/Info


-or-


 

Live Flight TrackerFlight Track Log ✈ N10NM ✈ 01-11-2013 ✈ KSUW - KBRD

Flight Track Log - Related Links

Times and Time Zones

All times are in EDT time to prevent confusion due to time zone crossing. See the N10NM flight status page for this flight to view local times or setup timezone preferences in your user account.

Time Position Orientation Groundspeed Altitude Reporting Facility
EDT Latitude Longitude Course Direction KTS MPH feet Rate Location/Type
11:55AM 46.6825 -92.2081 258° West 88 101 5,700  Level Minneapolis Center
11:56AM 46.6775 -92.2439 259° West 90 104 7,000 840 Climbing Minneapolis Center
11:57AM 46.6706 -92.2858 256° West 95 109 7,500 480 Climbing Minneapolis Center
11:58AM 46.6633 -92.3344 258° West 106 122 8,000 240 Climbing Minneapolis Center
11:59AM 46.6414 -92.4252 258° West  Level FlightAware Approximate
11:59AM 46.6561 -92.3850 258° West 116 133 8,000  Level Minneapolis Center
12:00PM 46.6333 -92.4803 258° West  Level FlightAware Approximate
12:00PM 46.6483 -92.4367 258° West 123 142 8,000  Level Minneapolis Center
12:01PM 46.6397 -92.4983 259° West 128 147 8,000  Level Minneapolis Center
12:02PM 46.6333 -92.5517 260° West 130 150 8,000  Level Minneapolis Center
12:03PM 46.6261 -92.6028 258° West 130 150 8,000  Level Minneapolis Center
12:04PM 46.6206 -92.6542 261° West 130 150 8,000  Level Minneapolis Center
12:05PM 46.6131 -92.7064 258° West 130 150 8,000  Level Minneapolis Center
12:06PM 46.6067 -92.7619 261° West 134 154 8,000  Level Minneapolis Center
12:07PM 46.5953 -92.8272 256° West 138 159 8,000 -60 Level Minneapolis Center
12:08PM 46.5864 -92.8844 257° West 142 163 7,900 -60 Descending Minneapolis Center
12:09PM 46.5783 -92.9406 258° West 142 163 7,900  Level Minneapolis Center
12:10PM 46.5697 -92.9947 257° West 139 160 7,900  Level Minneapolis Center
12:11PM 46.5628 -93.0497 260° West 139 160 7,900  Level Minneapolis Center
12:12PM 46.5544 -93.1047 258° West 139 160 7,900  Level Minneapolis Center
12:13PM 46.5461 -93.1592 257° West 139 160 7,900  Level Minneapolis Center
12:14PM 46.5372 -93.2242 259° West 137 158 7,900 -300 Level Minneapolis Center
12:15PM 46.5289 -93.2811 258° West 140 161 7,400 -540 Descending Minneapolis Center
12:16PM 46.5203 -93.3411 258° West 147 169 6,900 -480 Descending Minneapolis Center
12:17PM 46.5131 -93.4008 260° West 150 173 6,400 -480 Descending Minneapolis Center
12:18PM 46.5033 -93.4583 256° West 149 171 5,900 -540 Descending Minneapolis Center
12:19PM 46.4950 -93.5175 258° West 149 171 5,400 -540 Descending Minneapolis Center
12:21PM 46.5047 -93.5844 282° West 144 166 4,800 -540 Descending Minneapolis Center
12:22PM 46.5150 -93.6392 285° West 144 166 4,400 -420 Descending Minneapolis Center
12:23PM 46.5250 -93.6939 285° West 142 163 4,000 -480 Descending Minneapolis Center
12:24PM 46.5347 -93.7483 285° West 141 162 3,500 -480 Descending Minneapolis Center
12:25PM 46.5464 -93.8008 288° West 140 161 3,100 -300 Descending Minneapolis Center
12:26PM 46.5428 -93.8567 265° West 145 167 2,900 -60 Descending Minneapolis Center
12:27PM 46.5142 -93.9103 232° Southwest 145 167 3,000  Climbing Minneapolis Center
12:28PM 46.4903 -93.9572 234° Southwest 144 166 3,000  Level Minneapolis Center
12:29PM 46.4672 -94.0033 234° Southwest 143 165 3,000  Level Minneapolis Center
12:30PM 46.4456 -94.0472 234° Southwest 143 165 3,000  Level Minneapolis Center